Time;durP1;ratioP1;P1;durP2;ratioP2;P2;SDS_P1;SDS_P2;PMS_P1;PMS_P2;Temp;Humidity;BMP_temperature;BMP_pressure;BME280_temperature;BME280_humidity;BME280_pressure;Samples;Min_cycle;Max_cycle;Signal;HPM_P1;HPM_P2
2022/07/09 00:01:24;;;;;;;5.00;2.58;;;;;;;21.66;80.01;99386.38;5012296;28;20056;-81
2022/07/09 00:03:51;;;;;;;3.42;2.63;;;;;;;21.62;79.53;99367.81;5038065;28;20033;-82
2022/07/09 00:06:18;;;;;;;2.67;1.90;;;;;;;21.62;79.10;99366.97;5049231;28;20033;-81
2022/07/09 00:08:43;;;;;;;4.15;2.78;;;;;;;21.43;79.48;99368.13;5036415;28;20041;-83
2022/07/09 00:11:09;;;;;;;3.72;2.60;;;;;;;21.39;78.74;99365.75;5049460;28;20021;-83
2022/07/09 00:13:34;;;;;;;5.38;2.45;;;;;;;21.56;78.21;99376.25;5044016;28;20033;-81
2022/07/09 00:16:00;;;;;;;3.20;2.22;;;;;;;21.55;78.16;99366.50;5029484;28;20025;-84
2022/07/09 00:18:25;;;;;;;4.22;2.63;;;;;;;21.33;78.51;99329.44;5031853;28;20499;-82
2022/07/09 00:20:53;;;;;;;3.25;2.25;;;;;;;21.46;78.15;99364.41;5044743;28;20036;-82
2022/07/09 00:23:18;;;;;;;2.78;2.15;;;;;;;21.28;78.72;99348.50;5030300;28;20042;-82
2022/07/09 00:25:44;;;;;;;2.42;1.75;;;;;;;21.45;78.59;99368.03;5029718;28;20048;-82
2022/07/09 00:28:09;;;;;;;2.35;1.73;;;;;;;21.52;79.38;99385.50;5032528;28;20087;-81
2022/07/09 00:30:35;;;;;;;3.63;2.15;;;;;;;21.35;79.99;99370.47;5039151;28;20550;-82
2022/07/09 00:33:00;;;;;;;2.85;1.90;;;;;;;21.41;80.79;99374.53;5042550;28;20123;-83
2022/07/09 00:35:26;;;;;;;4.05;2.33;;;;;;;21.33;80.38;99342.84;5048041;28;20035;-83
2022/07/09 00:37:51;;;;;;;3.97;2.25;;;;;;;21.64;80.12;99386.50;5035028;28;20470;-83
2022/07/09 00:40:17;;;;;;;2.80;1.77;;;;;;;21.06;79.39;99329.44;5010604;28;20048;-82
2022/07/09 00:42:42;;;;;;;2.53;2.13;;;;;;;21.25;80.56;99364.81;5029343;28;20102;-82
2022/07/09 00:45:08;;;;;;;1.88;1.20;;;;;;;20.92;82.36;99349.06;5045628;28;20045;-83
2022/07/09 00:47:33;;;;;;;2.95;1.88;;;;;;;20.80;82.86;99355.22;5036779;28;20052;-83
2022/07/09 00:50:00;;;;;;;2.05;1.35;;;;;;;20.63;84.10;99357.06;5028649;28;20059;-82
2022/07/09 00:52:25;;;;;;;3.88;2.05;;;;;;;20.10;87.42;99367.44;5039239;28;20048;-82
2022/07/09 00:54:51;;;;;;;2.13;1.67;;;;;;;20.35;85.64;99345.38;5046676;28;20469;-84
2022/07/09 00:57:19;;;;;;;3.28;2.35;;;;;;;20.60;85.65;99361.78;5047675;28;20041;-82
2022/07/09 00:59:45;;;;;;;4.32;1.98;;;;;;;20.55;84.15;99349.50;5046454;28;20140;-82
2022/07/09 01:02:11;;;;;;;4.78;2.42;;;;;;;20.19;87.36;99340.09;5038008;28;20116;-84
2022/07/09 01:04:39;;;;;;;12.25;3.13;;;;;;;20.39;87.90;99354.97;5010527;28;20041;-83
2022/07/09 01:07:04;;;;;;;2.55;1.77;;;;;;;20.32;87.36;99339.34;5042164;28;20123;-83
2022/07/09 01:09:30;;;;;;;3.70;2.10;;;;;;;20.25;87.75;99338.88;5028087;28;20116;-82
2022/07/09 01:11:56;;;;;;;4.13;2.17;;;;;;;20.41;87.01;99324.56;5028308;28;20036;-82
2022/07/09 01:14:22;;;;;;;3.35;2.22;;;;;;;20.04;87.66;99308.91;5036934;28;20052;-83
2022/07/09 01:17:00;;;;;;;3.72;2.28;;;;;;;20.34;87.59;99332.97;5027832;28;20041;-82
2022/07/09 01:19:29;;;;;;;3.90;1.70;;;;;;;20.37;85.70;99330.09;5027291;28;20045;-83
2022/07/09 01:21:55;;;;;;;3.33;2.45;;;;;;;20.54;86.25;99354.97;5031696;28;20529;-85
2022/07/09 01:24:22;;;;;;;4.68;3.15;;;;;;;20.56;85.47;99353.06;5023026;28;20132;-83
2022/07/09 01:26:49;;;;;;;3.42;2.25;;;;;;;20.62;85.31;99363.41;5045959;28;20098;-83
2022/07/09 01:29:14;;;;;;;4.78;2.58;;;;;;;20.77;83.47;99345.53;5040877;28;20525;-83
2022/07/09 01:31:40;;;;;;;5.22;3.05;;;;;;;20.66;82.85;99353.38;5027766;28;20033;-82
2022/07/09 01:34:05;;;;;;;4.57;2.47;;;;;;;20.97;81.95;99372.91;5033803;28;20612;-84
2022/07/09 01:36:31;;;;;;;3.45;1.80;;;;;;;20.97;82.35;99376.44;5046298;28;20041;-82
2022/07/09 01:38:56;;;;;;;4.30;2.75;;;;;;;20.64;82.45;99348.09;5046893;28;20063;-82
2022/07/09 01:41:22;;;;;;;4.07;2.42;;;;;;;21.07;82.37;99379.44;5046675;28;20033;-83
2022/07/09 01:43:47;;;;;;;3.67;1.95;;;;;;;21.11;81.15;99362.16;5030758;28;20040;-84
2022/07/09 01:46:12;;;;;;;3.55;2.25;;;;;;;21.00;81.84;99357.47;5027226;28;20482;-83
2022/07/09 01:48:42;;;;;;;3.83;2.55;;;;;;;21.15;80.56;99360.13;5038972;28;20041;-82
2022/07/09 01:51:12;;;;;;;4.43;2.45;;;;;;;21.20;80.12;99356.22;5045821;28;20120;-84
2022/07/09 01:53:39;;;;;;;4.88;2.17;;;;;;;20.98;80.77;99329.91;5038646;28;20040;-84
2022/07/09 01:56:07;;;;;;;5.07;2.75;;;;;;;21.17;80.04;99343.00;5027111;28;20120;-82
2022/07/09 01:58:32;;;;;;;3.25;1.67;;;;;;;21.28;79.99;99353.88;5039395;28;20487;-84
2022/07/09 02:00:58;;;;;;;4.13;2.30;;;;;;;21.18;80.15;99335.81;5044322;28;20123;-83
2022/07/09 02:03:23;;;;;;;4.65;2.10;;;;;;;21.29;80.42;99350.25;5026724;28;20029;-82
2022/07/09 02:05:49;;;;;;;1.92;1.27;;;;;;;21.21;81.01;99363.31;5034748;28;20116;-84
2022/07/09 02:08:15;;;;;;;3.83;2.08;;;;;;;21.13;81.44;99362.91;5040584;28;20041;-83
2022/07/09 02:10:40;;;;;;;2.47;1.48;;;;;;;20.90;82.42;99342.97;5027625;28;20033;-82
2022/07/09 02:13:06;;;;;;;3.45;1.80;;;;;;;20.93;82.05;99340.94;5040709;28;20029;-83
2022/07/09 02:15:32;;;;;;;3.40;1.85;;;;;;;20.91;82.63;99350.03;5045072;28;20064;-82
2022/07/09 02:17:58;;;;;;;2.58;1.92;;;;;;;20.81;82.55;99320.28;5029225;28;20048;-83
2022/07/09 02:20:24;;;;;;;2.90;1.90;;;;;;;20.86;82.16;99317.28;5026779;28;20029;-83
2022/07/09 02:22:50;;;;;;;4.18;2.25;;;;;;;21.04;81.32;99329.53;5028130;28;20030;-82
2022/07/09 02:25:16;;;;;;;3.03;2.10;;;;;;;21.10;81.38;99339.84;5046248;28;20037;-83
2022/07/09 02:27:41;;;;;;;5.13;2.53;;;;;;;21.29;80.50;99344.03;5029930;28;20494;-84
2022/07/09 02:30:07;;;;;;;2.97;2.05;;;;;;;21.35;80.13;99345.44;5008585;28;20484;-82
2022/07/09 02:32:33;;;;;;;2.70;1.90;;;;;;;21.06;80.84;99335.63;5023781;28;20049;-83
2022/07/09 02:34:58;;;;;;;2.67;1.83;;;;;;;21.14;81.05;99342.34;5045938;28;20040;-83
2022/07/09 02:37:24;;;;;;;4.22;2.20;;;;;;;21.17;80.87;99356.41;5039745;28;20496;-82
2022/07/09 02:39:50;;;;;;;3.30;1.85;;;;;;;21.15;80.86;99341.38;5029007;28;20041;-82
2022/07/09 02:42:15;;;;;;;2.47;1.38;;;;;;;21.28;80.60;99345.84;5045923;28;20033;-83
2022/07/09 02:44:43;;;;;;;3.42;2.05;;;;;;;21.19;80.07;99324.97;5042581;28;20033;-83
2022/07/09 02:47:09;;;;;;;3.05;1.73;;;;;;;21.38;79.79;99361.34;5031764;28;20049;-84
2022/07/09 02:49:34;;;;;;;3.83;2.60;;;;;;;21.34;79.23;99341.91;5042593;28;20033;-82
2022/07/09 02:52:01;;;;;;;2.80;1.92;;;;;;;21.20;79.45;99331.22;5026688;28;20075;-82
2022/07/09 02:54:27;;;;;;;3.40;2.05;;;;;;;21.21;79.85;99347.22;5026185;28;20048;-83
2022/07/09 02:56:53;;;;;;;3.25;2.22;;;;;;;21.22;79.97;99343.53;5032139;28;20048;-82
2022/07/09 02:59:18;;;;;;;1.95;1.58;;;;;;;21.14;80.82;99350.38;5032532;28;20041;-83
2022/07/09 03:01:44;;;;;;;4.50;2.58;;;;;;;21.08;81.23;99349.81;5041644;28;20483;-83
2022/07/09 03:04:10;;;;;;;3.85;1.83;;;;;;;21.13;80.90;99329.88;5027958;28;20045;-83
2022/07/09 03:06:36;;;;;;;5.03;3.38;;;;;;;20.97;81.22;99317.47;5046070;28;20029;-83
2022/07/09 03:09:03;;;;;;;2.45;2.05;;;;;;;21.22;81.23;99345.38;5039063;28;20041;-82
2022/07/09 03:11:29;;;;;;;3.42;2.15;;;;;;;21.29;81.03;99341.34;5037959;28;20108;-83
2022/07/09 03:13:54;;;;;;;3.78;2.40;;;;;;;21.35;80.94;99332.03;5045759;28;20131;-83
2022/07/09 03:16:20;;;;;;;3.72;2.10;;;;;;;21.08;80.70;99300.69;5041106;28;20033;-83
2022/07/09 03:18:45;;;;;;;3.38;1.63;;;;;;;21.33;80.81;99313.34;5025917;28;20538;-83
2022/07/09 03:21:11;;;;;;;10.43;2.80;;;;;;;21.28;80.92;99304.75;5034831;28;20047;-85
2022/07/09 03:23:38;;;;;;;3.03;2.00;;;;;;;21.27;79.29;99309.25;5033944;28;20132;-83
2022/07/09 03:26:04;;;;;;;3.33;2.00;;;;;;;21.52;77.31;99330.94;5028141;28;20423;-84
2022/07/09 03:28:30;;;;;;;2.35;1.83;;;;;;;21.36;76.55;99312.28;5034503;28;20041;-85
2022/07/09 03:30:56;;;;;;;2.78;1.67;;;;;;;21.48;76.94;99342.84;5036541;28;20036;-84
2022/07/09 03:33:21;;;;;;;2.95;1.83;;;;;;;21.54;76.03;99346.00;5034616;28;20049;-85
2022/07/09 03:35:47;;;;;;;2.85;2.10;;;;;;;21.42;76.94;99334.19;5043185;28;20479;-85
2022/07/09 03:38:12;;;;;;;3.22;2.10;;;;;;;21.34;78.97;99346.41;5026090;28;20033;-83
2022/07/09 03:40:38;;;;;;;2.67;1.60;;;;;;;21.23;80.37;99345.28;5031269;28;20029;-82
2022/07/09 03:43:03;;;;;;;3.28;1.80;;;;;;;21.12;80.94;99321.00;5008611;28;20057;-85
2022/07/09 03:45:29;;;;;;;2.42;1.75;;;;;;;20.92;80.66;99315.06;5042033;28;20039;-85
2022/07/09 03:47:54;;;;;;;3.35;2.63;;;;;;;20.86;80.27;99336.91;5045224;28;20033;-85
2022/07/09 03:50:20;;;;;;;2.38;1.63;;;;;;;21.49;79.33;99344.53;5045136;28;20039;-84
2022/07/09 03:52:45;;;;;;;5.78;2.30;;;;;;;21.64;77.86;99328.31;5046389;28;20032;-85
2022/07/09 03:55:11;;;;;;;3.90;1.98;;;;;;;22.04;76.71;99348.91;5046329;28;20824;-84
2022/07/09 03:57:37;;;;;;;2.40;1.70;;;;;;;22.25;75.16;99332.31;5026790;28;20033;-83
2022/07/09 04:00:05;;;;;;;1.75;1.25;;;;;;;22.49;74.13;99356.63;5033707;28;20041;-85
2022/07/09 04:02:30;;;;;;;2.85;1.95;;;;;;;22.57;73.94;99334.59;5030640;28;20037;-86
2022/07/09 04:04:56;;;;;;;3.20;2.13;;;;;;;22.46;74.34;99340.72;5029195;28;20168;-84
2022/07/09 04:07:22;;;;;;;4.30;1.70;;;;;;;22.09;74.97;99325.31;5029860;28;20491;-84
2022/07/09 04:09:48;;;;;;;3.20;1.63;;;;;;;21.94;76.41;99324.53;5029274;28;20029;-84
2022/07/09 04:12:13;;;;;;;3.15;1.90;;;;;;;21.96;76.52;99351.28;5039189;28;20044;-85
2022/07/09 04:14:39;;;;;;;2.20;1.50;;;;;;;21.74;76.36;99325.03;5029584;28;20033;-84
2022/07/09 04:17:05;;;;;;;2.15;1.60;;;;;;;22.17;75.52;99354.34;5046782;28;20469;-85
2022/07/09 04:19:31;;;;;;;2.17;1.83;;;;;;;21.95;73.90;99331.63;5048608;28;20036;-83
2022/07/09 04:21:57;;;;;;;3.05;1.50;;;;;;;21.89;74.12;99340.09;5048042;28;20036;-83
2022/07/09 04:24:22;;;;;;;5.22;2.58;;;;;;;21.89;75.04;99336.53;5040066;28;20036;-83
2022/07/09 04:26:48;;;;;;;2.35;1.75;;;;;;;22.06;73.26;99341.66;5034983;28;20546;-85
2022/07/09 04:29:13;;;;;;;2.15;1.45;;;;;;;22.29;72.60;99339.19;5033301;28;20434;-83
2022/07/09 04:31:39;;;;;;;2.30;1.73;;;;;;;22.25;73.21;99362.72;5034823;28;20411;-82
2022/07/09 04:34:04;;;;;;;2.67;2.28;;;;;;;22.32;72.39;99347.06;5048549;28;20053;-83
2022/07/09 04:36:31;;;;;;;2.92;1.67;;;;;;;21.93;73.38;99333.53;5035834;28;20055;-83
2022/07/09 04:38:56;;;;;;;3.00;1.83;;;;;;;21.95;75.42;99358.47;5030363;28;20434;-83
2022/07/09 04:41:22;;;;;;;2.30;1.70;;;;;;;21.71;76.11;99344.88;5042905;28;20055;-83
2022/07/09 04:43:47;;;;;;;3.60;1.70;;;;;;;21.51;75.75;99335.47;5038207;28;20047;-84
2022/07/09 04:46:13;;;;;;;2.38;1.50;;;;;;;21.70;74.61;99321.66;5048305;28;20036;-83
2022/07/09 04:48:39;;;;;;;4.10;2.83;;;;;;;21.89;75.72;99361.59;5048810;28;20025;-83
2022/07/09 04:51:05;;;;;;;3.25;2.10;;;;;;;21.92;74.53;99358.69;5045277;28;20044;-83
2022/07/09 04:53:30;;;;;;;3.15;1.70;;;;;;;21.91;73.95;99354.28;5031933;28;20029;-83
2022/07/09 04:55:56;;;;;;;3.10;2.10;;;;;;;21.79;75.51;99360.47;5034372;28;20040;-82
2022/07/09 04:58:22;;;;;;;1.85;1.45;;;;;;;21.73;74.12;99355.50;5010139;28;20416;-83
2022/07/09 05:00:47;;;;;;;3.13;1.70;;;;;;;21.47;74.13;99331.22;5044252;28;20029;-82
2022/07/09 05:03:13;;;;;;;2.42;1.67;;;;;;;21.74;76.65;99349.19;5029047;28;20045;-81
2022/07/09 05:05:38;;;;;;;4.10;2.17;;;;;;;21.71;76.68;99347.56;5047805;28;20438;-79
2022/07/09 05:08:04;;;;;;;2.75;1.60;;;;;;;21.68;76.08;99350.44;5047856;28;20033;-83
2022/07/09 05:10:29;;;;;;;2.78;1.73;;;;;;;21.82;75.64;99355.75;5047739;28;20029;-82
2022/07/09 05:12:55;;;;;;;2.78;1.85;;;;;;;21.59;75.43;99329.59;5038805;28;20040;-83
2022/07/09 05:15:20;;;;;;;2.72;2.38;;;;;;;21.93;75.74;99357.72;5039937;28;20033;-83
2022/07/09 05:17:46;;;;;;;1.85;1.52;;;;;;;21.92;75.54;99352.44;5042020;28;20045;-82
2022/07/09 05:20:11;;;;;;;1.80;1.40;;;;;;;21.64;74.22;99339.06;5027702;28;20091;-82
2022/07/09 05:22:38;;;;;;;2.33;1.63;;;;;;;21.85;73.81;99361.88;5029095;28;20037;-82
2022/07/09 05:25:04;;;;;;;2.05;1.45;;;;;;;21.94;74.43;99367.50;5027896;28;20037;-83
2022/07/09 05:27:30;;;;;;;4.22;1.95;;;;;;;22.13;73.68;99368.94;5028515;28;20578;-82
2022/07/09 05:29:56;;;;;;;1.77;1.10;;;;;;;21.87;71.96;99354.59;5045005;28;20143;-82
2022/07/09 05:32:21;;;;;;;2.70;1.80;;;;;;;22.02;71.40;99377.72;5045774;28;20143;-82
2022/07/09 05:34:47;;;;;;;3.88;1.73;;;;;;;21.87;72.04;99346.53;5020032;28;20179;-82
2022/07/09 05:37:13;;;;;;;2.67;1.60;;;;;;;22.08;73.45;99363.88;5027559;28;20032;-82
2022/07/09 05:39:38;;;;;;;2.67;1.00;;;;;;;22.16;73.19;99356.16;5029056;28;20045;-81
2022/07/09 05:42:04;;;;;;;4.00;1.50;;;;;;;22.27;71.41;99376.91;5027614;28;20037;-83
2022/07/09 05:44:30;;;;;;;1.55;1.30;;;;;;;22.21;73.25;99363.88;5039399;28;20029;-84
2022/07/09 05:46:56;;;;;;;1.80;1.30;;;;;;;22.06;72.67;99362.25;5035215;28;20434;-82
2022/07/09 05:49:21;;;;;;;4.43;2.92;;;;;;;22.09;72.20;99379.03;5028725;28;20064;-83
2022/07/09 05:51:47;;;;;;;3.00;2.17;;;;;;;22.16;72.04;99355.28;5027353;28;20033;-82
2022/07/09 05:54:12;;;;;;;3.40;1.95;;;;;;;22.12;73.28;99345.72;5034144;28;20414;-83
2022/07/09 05:56:38;;;;;;;3.28;2.10;;;;;;;22.17;71.48;99346.28;5047384;28;20047;-82
2022/07/09 05:59:04;;;;;;;2.90;1.67;;;;;;;22.15;72.06;99362.50;5032082;28;20515;-84
2022/07/09 06:01:30;;;;;;;2.65;2.10;;;;;;;22.33;71.76;99371.13;5031615;28;20063;-83
2022/07/09 06:03:55;;;;;;;2.25;1.40;;;;;;;22.41;69.88;99364.38;5046822;28;20052;-84
2022/07/09 06:06:21;;;;;;;3.08;1.85;;;;;;;22.36;71.60;99324.41;5040348;28;20106;-83
2022/07/09 06:08:47;;;;;;;4.75;1.63;;;;;;;22.73;70.31;99339.78;5047162;28;20065;-82
2022/07/09 06:11:12;;;;;;;2.58;1.65;;;;;;;22.58;70.54;99322.88;5046779;28;20037;-84
2022/07/09 06:13:38;;;;;;;2.55;1.75;;;;;;;22.94;69.34;99340.91;5035145;28;20797;-83
2022/07/09 06:16:03;;;;;;;3.13;2.30;;;;;;;22.37;69.36;99303.75;5036180;28;20025;-84
2022/07/09 06:18:29;;;;;;;2.78;1.88;;;;;;;22.58;68.56;99329.13;5036679;28;20427;-83
2022/07/09 06:20:54;;;;;;;3.15;1.60;;;;;;;22.66;68.72;99337.50;5026786;28;20057;-83
2022/07/09 06:23:21;;;;;;;1.92;1.55;;;;;;;22.94;68.66;99337.34;5040563;28;20098;-84
2022/07/09 06:25:47;;;;;;;1.90;1.38;;;;;;;22.87;68.95;99339.63;5046947;28;20071;-82
2022/07/09 06:28:18;;;;;;;3.35;1.95;;;;;;;22.96;66.80;99338.13;5046294;28;20064;-81
2022/07/09 06:30:45;;;;;;;2.47;1.52;;;;;;;22.87;66.84;99310.91;5022521;28;20067;-81
2022/07/09 06:33:10;;;;;;;2.70;1.35;;;;;;;22.80;67.06;99347.28;5037596;28;20048;-81
2022/07/09 06:35:36;;;;;;;2.25;1.40;;;;;;;22.95;67.70;99331.00;5038366;28;20044;-82
2022/07/09 06:38:01;;;;;;;3.38;1.50;;;;;;;23.01;67.80;99335.94;5041484;28;20037;-82
2022/07/09 06:40:30;;;;;;;2.20;1.50;;;;;;;22.75;66.07;99332.44;5017091;28;20033;-83
2022/07/09 06:42:56;;;;;;;1.80;1.23;;;;;;;22.66;66.97;99301.69;5009591;28;20065;-83
2022/07/09 06:45:21;;;;;;;3.03;1.67;;;;;;;22.75;67.11;99294.81;5025237;28;20099;-82
2022/07/09 06:47:47;;;;;;;0.80;0.77;;;;;;;22.70;65.76;99325.56;5028692;28;20224;-83
2022/07/09 06:50:12;;;;;;;5.03;1.63;;;;;;;22.74;68.63;99307.41;5045978;28;20486;-82
2022/07/09 06:52:38;;;;;;;3.08;1.75;;;;;;;23.06;66.16;99318.50;5045660;28;20044;-81
2022/07/09 06:55:04;;;;;;;3.63;1.38;;;;;;;22.92;64.97;99293.59;5030763;28;20071;-80
2022/07/09 06:57:30;;;;;;;2.88;2.05;;;;;;;23.21;66.93;99334.53;5026877;28;20034;-80
2022/07/09 06:59:56;;;;;;;2.88;1.50;;;;;;;23.26;65.26;99329.66;5044320;28;20478;-79
2022/07/09 07:02:21;;;;;;;2.15;1.30;;;;;;;23.00;66.33;99316.28;5046730;28;20116;-81
2022/07/09 07:04:53;;;;;;;1.88;1.25;;;;;;;23.29;66.57;99345.56;5046431;28;20037;-80
2022/07/09 07:07:18;;;;;;;1.83;1.38;;;;;;;23.48;65.30;99326.25;5045818;28;20041;-79
2022/07/09 07:09:44;;;;;;;2.05;1.60;;;;;;;23.76;65.79;99322.34;5046311;28;20025;-80
2022/07/09 07:12:09;;;;;;;2.50;1.98;;;;;;;24.06;65.39;99317.47;5046183;28;20029;-81
2022/07/09 07:14:36;;;;;;;2.30;1.50;;;;;;;23.72;63.61;99299.31;5044752;28;20025;-78
2022/07/09 07:17:02;;;;;;;2.08;1.13;;;;;;;24.12;63.45;99328.59;5044056;28;20746;-79
2022/07/09 07:19:28;;;;;;;1.95;1.35;;;;;;;24.26;64.12;99295.19;5045912;28;20052;-80
2022/07/09 07:21:54;;;;;;;2.33;1.60;;;;;;;24.27;62.55;99320.34;5045630;28;20083;-80
2022/07/09 07:24:19;;;;;;;2.00;1.75;;;;;;;24.03;61.96;99323.94;5045664;28;20037;-81
2022/07/09 07:26:45;;;;;;;2.58;1.50;;;;;;;24.22;63.55;99333.28;5044467;28;20072;-80
2022/07/09 07:29:10;;;;;;;2.72;1.55;;;;;;;23.98;63.24;99333.34;5045432;28;20036;-79
2022/07/09 07:31:36;;;;;;;2.40;1.60;;;;;;;24.30;63.62;99317.41;5046051;28;20762;-84
2022/07/09 07:34:01;;;;;;;1.88;1.50;;;;;;;23.97;61.95;99302.84;5045281;28;20098;-83
2022/07/09 07:36:27;;;;;;;1.63;1.05;;;;;;;24.18;62.16;99329.97;5030911;28;20045;-82
2022/07/09 07:38:54;;;;;;;3.20;1.63;;;;;;;24.52;60.98;99338.13;5049999;28;20033;-82
2022/07/09 07:41:20;;;;;;;2.47;1.30;;;;;;;24.39;62.70;99308.59;5049768;28;20453;-82
2022/07/09 07:43:46;;;;;;;1.85;1.50;;;;;;;24.42;60.64;99318.25;5049321;28;20028;-84
2022/07/09 07:46:12;;;;;;;1.33;1.17;;;;;;;24.59;59.74;99308.88;5049062;28;20086;-83
2022/07/09 07:48:40;;;;;;;1.70;1.23;;;;;;;24.54;59.10;99325.38;5049043;28;20110;-84
2022/07/09 07:51:06;;;;;;;1.13;1.00;;;;;;;24.80;59.48;99338.66;5032043;28;20040;-84
2022/07/09 07:53:32;;;;;;;2.28;1.35;;;;;;;24.80;59.27;99327.88;5031328;28;20150;-85
2022/07/09 07:56:00;;;;;;;1.33;0.93;;;;;;;24.91;58.63;99319.78;5049725;28;20037;-85
2022/07/09 07:58:26;;;;;;;2.45;1.70;;;;;;;24.73;60.20;99329.34;5031279;28;20055;-85
2022/07/09 08:00:51;;;;;;;1.27;0.95;;;;;;;24.91;57.85;99324.31;5049535;28;20503;-85
2022/07/09 08:03:17;;;;;;;2.20;1.73;;;;;;;24.93;57.93;99323.22;5049403;28;20173;-85
2022/07/09 08:05:42;;;;;;;1.85;1.40;;;;;;;25.12;59.50;99338.78;5049482;28;20824;-84
2022/07/09 08:08:08;;;;;;;1.27;1.15;;;;;;;24.77;56.36;99328.97;5049063;28;20043;-85
2022/07/09 08:10:33;;;;;;;3.55;1.48;;;;;;;24.38;57.28;99347.28;5048734;28;20033;-84
2022/07/09 08:12:59;;;;;;;1.60;1.50;;;;;;;24.37;57.58;99332.09;5048699;28;20039;-84
2022/07/09 08:15:24;;;;;;;2.00;1.35;;;;;;;24.24;58.68;99315.19;5048895;28;20036;-85
2022/07/09 08:17:50;;;;;;;2.15;1.45;;;;;;;24.18;59.17;99316.50;5031375;28;20033;-84
2022/07/09 08:20:15;;;;;;;2.35;1.90;;;;;;;24.24;57.86;99344.81;5048911;28;20031;-84
2022/07/09 08:22:41;;;;;;;2.35;1.33;;;;;;;24.35;59.07;99317.88;5049506;28;20495;-84
2022/07/09 08:25:07;;;;;;;1.60;1.25;;;;;;;24.24;58.18;99347.53;5030944;28;20110;-84
2022/07/09 08:27:32;;;;;;;2.58;1.65;;;;;;;23.82;59.60;99334.50;5049186;28;20040;-84
2022/07/09 08:29:58;;;;;;;2.90;1.92;;;;;;;23.78;60.81;99324.91;5049065;28;20025;-84
2022/07/09 08:32:23;;;;;;;4.80;2.92;;;;;;;23.68;58.93;99323.88;5048861;28;20049;-84
2022/07/09 08:34:49;;;;;;;3.03;1.38;;;;;;;24.05;60.44;99330.06;5051118;28;20037;-85
2022/07/09 08:37:14;;;;;;;2.03;1.58;;;;;;;24.04;58.83;99338.28;5033186;28;20128;-84
2022/07/09 08:39:39;;;;;;;3.03;1.83;;;;;;;24.04;59.56;99336.44;5050372;28;20036;-84
2022/07/09 08:42:12;;;;;;;2.67;1.73;;;;;;;24.13;60.48;99326.78;5052183;28;20142;-87
2022/07/09 08:44:39;;;;;;;1.75;1.50;;;;;;;24.17;59.47;99308.53;5051068;28;20090;-89
2022/07/09 08:47:05;;;;;;;2.25;1.33;;;;;;;24.49;58.46;99324.88;5053401;28;20021;-88
2022/07/09 08:49:32;;;;;;;2.33;1.50;;;;;;;24.94;58.11;99334.84;5061749;28;20524;-87
2022/07/09 08:51:58;;;;;;;2.03;1.33;;;;;;;24.84;56.83;99327.50;5048772;28;20120;-87
2022/07/09 08:54:24;;;;;;;2.42;1.30;;;;;;;25.01;57.26;99293.78;5046754;28;20140;-87
2022/07/09 08:56:51;;;;;;;4.60;2.25;;;;;;;25.17;56.82;99314.94;5046108;28;20044;-87
2022/07/09 08:59:16;;;;;;;1.38;1.15;;;;;;;25.05;56.35;99321.34;5046692;28;20036;-85
2022/07/09 09:01:42;;;;;;;1.30;1.10;;;;;;;25.01;55.88;99287.53;5046679;28;20106;-86
2022/07/09 09:04:08;;;;;;;3.42;1.60;;;;;;;25.17;54.54;99296.06;5048757;28;20028;-87
2022/07/09 09:06:40;;;;;;;1.27;1.15;;;;;;;25.00;55.44;99312.78;5050821;28;20059;-86
2022/07/09 09:09:10;;;;;;;2.63;1.95;;;;;;;24.83;56.15;99323.09;5058848;28;20060;-88
2022/07/09 09:11:37;;;;;;;1.73;1.30;;;;;;;25.15;55.76;99319.63;5049397;28;20035;-87
2022/07/09 09:14:03;;;;;;;1.55;1.35;;;;;;;25.01;56.14;99319.91;5050298;28;20470;-88
2022/07/09 09:16:29;;;;;;;2.42;1.70;;;;;;;24.71;57.30;99296.25;5049796;28;20542;-88
2022/07/09 09:18:59;;;;;;;1.98;1.38;;;;;;;24.81;58.06;99319.66;5048136;28;20029;-87
2022/07/09 09:21:26;;;;;;;2.28;1.38;;;;;;;24.85;57.34;99317.56;5029101;28;20047;-87
2022/07/09 09:23:53;;;;;;;2.38;1.60;;;;;;;24.65;58.09;99302.97;5048087;28;20040;-86
2022/07/09 09:26:21;;;;;;;1.60;1.50;;;;;;;24.82;57.79;99313.31;5048069;28;20064;-85
2022/07/09 09:28:54;;;;;;;2.83;1.77;;;;;;;24.81;57.61;99306.19;5048008;28;20588;-87
2022/07/09 09:31:24;;;;;;;1.80;1.23;;;;;;;24.84;56.98;99335.59;5048694;28;20578;-86
2022/07/09 09:33:52;;;;;;;3.00;1.50;;;;;;;24.66;57.42;99326.28;5048930;28;20057;-86
2022/07/09 09:36:34;;;;;;;1.92;1.70;;;;;;;24.89;56.42;99327.13;5049004;28;20033;-83
2022/07/09 09:39:09;;;;;;;2.47;1.88;;;;;;;25.09;57.33;99332.78;5049030;28;20077;-84
2022/07/09 09:41:35;;;;;;;4.00;3.13;;;;;;;24.99;56.99;99325.44;5048969;28;20037;-85
2022/07/09 09:44:09;;;;;;;2.35;1.60;;;;;;;25.18;56.86;99330.16;5050637;28;20506;-84
2022/07/09 09:46:37;;;;;;;2.83;1.83;;;;;;;25.48;58.10;99325.94;5048265;28;20095;-84
2022/07/09 09:49:07;;;;;;;3.20;1.55;;;;;;;25.26;56.01;99328.69;5048536;28;20135;-85
2022/07/09 09:51:54;;;;;;;4.25;1.80;;;;;;;25.29;56.01;99323.94;5030562;28;20032;-85
2022/07/09 09:54:21;;;;;;;4.57;1.70;;;;;;;25.48;57.08;99317.84;5030588;28;20044;-85
2022/07/09 09:56:50;;;;;;;1.95;1.35;;;;;;;25.68;56.25;99324.28;5047464;28;20127;-85
2022/07/09 09:59:17;;;;;;;1.48;1.17;;;;;;;25.59;55.32;99329.63;5046946;28;20037;-84
2022/07/09 10:01:43;;;;;;;2.20;1.58;;;;;;;25.47;55.87;99313.47;5047595;28;20502;-85
2022/07/09 10:04:10;;;;;;;1.75;1.25;;;;;;;25.58;56.60;99323.38;5047259;28;20091;-83
2022/07/09 10:06:37;;;;;;;2.03;1.50;;;;;;;25.82;55.44;99322.28;5047438;28;20029;-83
2022/07/09 10:09:04;;;;;;;3.30;1.85;;;;;;;25.74;54.54;99325.63;5047299;28;20044;-82
2022/07/09 10:11:39;;;;;;;3.05;1.35;;;;;;;25.71;55.57;99312.38;5046957;28;20029;-82
2022/07/09 10:14:05;;;;;;;2.65;1.60;;;;;;;25.62;56.26;99318.56;5047456;28;20090;-82
2022/07/09 10:16:39;;;;;;;2.08;1.70;;;;;;;25.38;55.96;99295.31;5047202;28;20037;-82
2022/07/09 10:19:06;;;;;;;2.03;1.52;;;;;;;25.71;56.64;99306.97;5047241;28;20037;-81
2022/07/09 10:21:42;;;;;;;1.67;1.38;;;;;;;25.90;56.54;99311.66;5047160;28;20086;-82
2022/07/09 10:24:09;;;;;;;1.88;1.40;;;;;;;25.83;56.22;99316.75;5047000;28;20032;-81
2022/07/09 10:27:01;;;;;;;1.90;1.27;;;;;;;25.80;54.64;99305.34;5046876;28;20032;-82
2022/07/09 10:29:28;;;;;;;3.17;2.08;;;;;;;25.86;56.29;99299.44;5029217;28;20116;-81
2022/07/09 10:31:55;;;;;;;2.67;1.95;;;;;;;25.83;55.64;99305.09;5046781;28;20024;-81
2022/07/09 10:34:45;;;;;;;1.80;1.38;;;;;;;25.96;55.04;99313.84;5045521;28;20178;-82
2022/07/09 10:37:11;;;;;;;2.65;1.70;;;;;;;25.89;56.02;99300.03;5044725;28;20108;-82
2022/07/09 10:39:37;;;;;;;2.63;1.88;;;;;;;25.87;57.56;99317.34;5046709;28;20170;-81
2022/07/09 10:42:05;;;;;;;4.90;2.58;;;;;;;25.99;56.55;99312.78;5045978;28;20025;-82
2022/07/09 10:44:39;;;;;;;9.30;4.13;;;;;;;25.68;55.00;99305.38;5046121;28;20113;-81
2022/07/09 10:47:05;;;;;;;7.77;2.73;;;;;;;26.03;55.15;99314.25;5046768;28;20037;-82
2022/07/09 10:49:33;;;;;;;3.70;2.53;;;;;;;25.63;56.44;99290.56;5045662;28;20848;-80
2022/07/09 10:51:59;;;;;;;4.47;2.75;;;;;;;25.15;56.11;99284.56;5046370;28;20029;-82
2022/07/09 10:54:26;;;;;;;2.90;1.80;;;;;;;25.42;55.71;99312.97;5046319;28;20762;-81
2022/07/09 10:56:53;;;;;;;3.22;1.50;;;;;;;25.14;54.89;99276.56;5045873;28;20524;-82
2022/07/09 10:59:19;;;;;;;3.70;2.28;;;;;;;25.50;54.66;99298.81;5046762;28;20115;-83
2022/07/09 11:01:44;;;;;;;3.90;2.10;;;;;;;25.20;55.72;99282.31;5046461;28;20043;-82
2022/07/09 11:04:13;;;;;;;8.70;2.42;;;;;;;25.30;55.58;99287.00;5045887;28;20406;-85
2022/07/09 11:06:48;;;;;;;4.65;2.33;;;;;;;25.45;56.91;99288.41;5045468;28;20060;-81
2022/07/09 11:09:14;;;;;;;4.00;2.40;;;;;;;25.61;54.98;99295.22;5047601;28;20036;-82
2022/07/09 11:11:44;;;;;;;4.93;2.85;;;;;;;25.81;55.65;99286.31;5048935;28;20029;-84
2022/07/09 11:14:12;;;;;;;3.28;2.63;;;;;;;26.26;54.96;99288.78;5046340;28;20029;-82
2022/07/09 11:16:39;;;;;;;3.10;1.90;;;;;;;26.09;56.54;99286.69;5042297;28;20040;-82
2022/07/09 11:19:18;;;;;;;6.93;1.90;;;;;;;26.19;55.38;99279.47;5049367;28;20537;-81
2022/07/09 11:21:44;;;;;;;3.03;1.70;;;;;;;26.61;52.43;99298.31;5049837;28;20471;-81
2022/07/09 11:24:23;;;;;;;2.70;1.85;;;;;;;26.79;51.00;99281.50;5045081;28;20114;-81
2022/07/09 11:26:49;;;;;;;2.67;1.75;;;;;;;26.82;54.11;99280.34;5049185;28;20051;-82
2022/07/09 11:29:17;;;;;;;3.20;1.90;;;;;;;26.70;54.82;99272.34;5049406;28;20502;-82
2022/07/09 11:31:50;;;;;;;3.17;1.60;;;;;;;27.03;53.07;99286.56;5048899;28;20082;-82